Time;durP1;ratioP1;P1;durP2;ratioP2;P2;SDS_P1;SDS_P2;PMS_P1;PMS_P2;Temp;Humidity;BMP_temperature;BMP_pressure;BME280_temperature;BME280_humidity;BME280_pressure;Samples;Min_cycle;Max_cycle;Signal;HPM_P1;HPM_P2
2022/03/18 00:01:17;;;;;;;24.77;21.73;;;8.10;99.90;;;;;;5066153;28;20190;-74
2022/03/18 00:03:43;;;;;;;24.52;21.20;;;8.00;99.90;;;;;;5066735;28;20203;-74
2022/03/18 00:06:09;;;;;;;28.77;23.23;;;8.10;99.90;;;;;;5069735;28;20281;-74
2022/03/18 00:08:35;;;;;;;25.17;21.13;;;8.10;99.90;;;;;;5067196;28;20221;-74
2022/03/18 00:11:02;;;;;;;27.13;22.33;;;8.10;99.90;;;;;;5066610;28;20179;-74
2022/03/18 00:13:27;;;;;;;24.23;21.77;;;8.10;99.90;;;;;;5066539;28;20692;-72
2022/03/18 00:15:54;;;;;;;25.02;21.58;;;8.30;99.90;;;;;;5067704;28;20179;-73
2022/03/18 00:18:20;;;;;;;26.88;21.85;;;8.20;99.90;;;;;;5065155;28;20175;-74
2022/03/18 00:20:47;;;;;;;25.73;22.83;;;8.20;99.90;;;;;;5072077;28;20183;-74
2022/03/18 00:23:13;;;;;;;23.35;20.92;;;8.10;99.90;;;;;;5069948;28;20186;-74
2022/03/18 00:25:39;;;;;;;23.73;21.20;;;8.20;99.90;;;;;;5072288;28;20259;-74
2022/03/18 00:28:05;;;;;;;26.42;22.95;;;8.20;99.90;;;;;;5064704;28;20666;-75
2022/03/18 00:30:31;;;;;;;24.80;21.88;;;8.20;99.90;;;;;;5071786;28;20706;-74
2022/03/18 00:32:56;;;;;;;25.30;22.20;;;8.10;99.90;;;;;;5073024;28;20178;-75
2022/03/18 00:35:23;;;;;;;26.15;22.67;;;8.10;99.90;;;;;;5072649;28;20207;-74
2022/03/18 00:37:49;;;;;;;26.92;21.55;;;8.00;99.90;;;;;;5071117;28;20271;-73
2022/03/18 00:40:15;;;;;;;24.70;21.92;;;8.00;99.90;;;;;;5072780;28;20297;-74
2022/03/18 00:42:40;;;;;;;23.63;20.88;;;7.90;99.90;;;;;;5074084;28;20183;-74
2022/03/18 00:45:07;;;;;;;23.90;21.23;;;7.90;99.90;;;;;;5070773;28;20712;-74
2022/03/18 00:53:01;;;;;;;24.55;21.67;;;7.90;99.90;;;;;;5064818;28;20616;-74
2022/03/18 00:55:27;;;;;;;24.10;21.15;;;7.90;99.90;;;;;;5070382;28;20172;-74
2022/03/18 00:57:53;;;;;;;23.77;21.23;;;7.90;99.90;;;;;;5071981;28;20207;-74
2022/03/18 01:00:18;;;;;;;25.50;21.13;;;7.80;99.90;;;;;;5068840;28;20180;-74
2022/03/18 01:02:44;;;;;;;23.98;21.33;;;7.80;99.90;;;;;;5064589;28;20194;-73
2022/03/18 01:05:09;;;;;;;23.30;19.63;;;7.80;99.90;;;;;;5073399;28;20262;-72
2022/03/18 01:07:35;;;;;;;23.95;20.90;;;7.80;99.90;;;;;;5069761;28;20214;-72
2022/03/18 01:10:01;;;;;;;23.80;20.77;;;7.80;99.90;;;;;;5064744;28;20597;-73
2022/03/18 01:12:27;;;;;;;26.10;21.25;;;7.80;99.90;;;;;;5064899;28;20180;-72
2022/03/18 01:14:53;;;;;;;22.85;20.05;;;7.80;99.90;;;;;;5071910;28;20208;-74
2022/03/18 01:17:19;;;;;;;27.33;22.35;;;7.80;99.90;;;;;;5067319;28;20180;-74
2022/03/18 01:19:44;;;;;;;25.55;22.00;;;7.80;99.90;;;;;;5079864;28;20266;-74
2022/03/18 01:22:10;;;;;;;26.65;23.77;;;7.80;99.90;;;;;;5071051;28;20677;-73
2022/03/18 01:24:37;;;;;;;29.48;23.45;;;7.80;99.90;;;;;;5067446;28;20195;-75
2022/03/18 01:27:04;;;;;;;28.08;24.10;;;7.80;99.90;;;;;;5070707;28;20707;-74
2022/03/18 01:29:30;;;;;;;29.45;23.52;;;7.70;99.90;;;;;;5062568;28;20182;-75
2022/03/18 01:31:56;;;;;;;26.50;23.65;;;7.70;99.90;;;;;;5066831;28;20171;-75
2022/03/18 01:34:21;;;;;;;29.55;24.15;;;7.70;99.90;;;;;;5072354;28;20261;-75
2022/03/18 01:36:48;;;;;;;28.13;24.67;;;7.70;99.90;;;;;;5062832;28;20661;-75
2022/03/18 01:39:14;;;;;;;30.65;24.00;;;7.60;99.90;;;;;;5058376;28;20186;-74
2022/03/18 01:41:40;;;;;;;29.13;24.15;;;7.60;99.90;;;;;;5064985;28;20250;-73
2022/03/18 01:44:10;;;;;;;28.20;24.38;;;7.60;99.90;;;;;;5058662;28;20258;-74
2022/03/18 01:46:37;;;;;;;31.50;24.92;;;7.60;99.90;;;;;;5062000;28;20179;-75
2022/03/18 01:49:03;;;;;;;33.92;23.98;;;7.60;99.90;;;;;;5058370;28;20597;-76
2022/03/18 01:51:29;;;;;;;27.70;23.05;;;7.60;99.90;;;;;;5058049;28;20840;-73
2022/03/18 01:56:40;;;;;;;29.40;25.20;;;7.60;99.90;;;;;;5056343;28;20267;-75
2022/03/18 01:59:05;;;;;;;30.42;25.90;;;7.50;99.90;;;;;;5055825;28;20179;-76
2022/03/18 02:01:31;;;;;;;29.33;25.95;;;7.50;99.90;;;;;;5063268;28;20549;-73
2022/03/18 02:03:56;;;;;;;29.33;25.52;;;7.50;99.90;;;;;;5057140;28;20330;-74
2022/03/18 02:06:23;;;;;;;31.83;25.73;;;7.50;99.90;;;;;;5058157;28;20180;-74
2022/03/18 02:08:49;;;;;;;29.80;25.83;;;7.50;99.90;;;;;;5064899;28;20218;-76
2022/03/18 02:11:14;;;;;;;28.35;24.85;;;7.50;99.90;;;;;;5056042;28;20682;-75
2022/03/18 02:13:40;;;;;;;32.67;24.48;;;7.40;99.90;;;;;;5069574;28;20566;-75
2022/03/18 02:16:05;;;;;;;30.98;24.85;;;7.40;99.90;;;;;;5076524;28;20562;-74
2022/03/18 02:18:31;;;;;;;29.27;24.88;;;7.40;99.90;;;;;;5062558;28;20194;-75
2022/03/18 02:20:57;;;;;;;29.25;24.33;;;7.30;99.90;;;;;;5058466;28;20180;-75
2022/03/18 02:23:22;;;;;;;26.45;23.55;;;7.30;99.90;;;;;;5059876;28;20687;-75
2022/03/18 02:25:48;;;;;;;31.58;25.35;;;7.20;99.90;;;;;;5057941;28;20214;-75
2022/03/18 02:28:14;;;;;;;27.08;24.00;;;7.20;99.90;;;;;;5058655;28;20662;-75
2022/03/18 02:30:39;;;;;;;27.15;24.23;;;7.20;99.90;;;;;;5056083;28;20186;-75
2022/03/18 02:33:05;;;;;;;29.00;25.25;;;7.20;99.90;;;;;;5057756;28;20186;-74
2022/03/18 02:35:32;;;;;;;28.73;25.33;;;7.20;99.90;;;;;;5056106;28;20198;-74
2022/03/18 02:37:59;;;;;;;28.73;25.63;;;7.10;99.90;;;;;;5053766;28;20565;-74
2022/03/18 02:40:26;;;;;;;31.52;26.42;;;7.10;99.90;;;;;;5057092;28;20233;-73
2022/03/18 02:42:52;;;;;;;29.63;26.17;;;7.10;99.90;;;;;;5053711;28;20248;-75
2022/03/18 02:45:18;;;;;;;31.95;26.48;;;7.10;99.90;;;;;;5054206;28;20238;-75
2022/03/18 02:47:44;;;;;;;30.90;26.40;;;7.10;99.90;;;;;;5065463;28;20182;-74
2022/03/18 02:50:10;;;;;;;33.70;28.40;;;7.10;99.90;;;;;;5067953;28;20176;-75
2022/03/18 02:52:35;;;;;;;33.50;28.40;;;7.10;99.90;;;;;;5070658;28;20711;-75
2022/03/18 02:55:01;;;;;;;34.90;30.17;;;7.10;99.90;;;;;;5065314;28;20207;-74
2022/03/18 02:57:27;;;;;;;38.95;30.95;;;7.10;99.90;;;;;;5070025;28;20558;-75
2022/03/18 02:59:53;;;;;;;35.50;30.42;;;7.10;99.90;;;;;;5068246;28;20190;-75
2022/03/18 03:02:18;;;;;;;37.40;30.55;;;7.20;99.90;;;;;;5070832;28;20183;-75
2022/03/18 03:10:12;;;;;;;39.20;32.80;;;7.10;99.90;;;;;;5067912;28;20528;-75
2022/03/18 03:12:41;;;;;;;41.03;33.30;;;7.10;99.90;;;;;;5070100;28;20167;-75
2022/03/18 03:15:08;;;;;;;41.97;32.85;;;7.10;99.90;;;;;;5068964;28;20203;-76
2022/03/18 03:17:34;;;;;;;39.60;32.03;;;7.10;99.90;;;;;;5073545;28;20179;-73
2022/03/18 03:20:00;;;;;;;43.35;33.38;;;7.10;99.90;;;;;;5079161;28;20185;-73
2022/03/18 03:22:29;;;;;;;43.60;35.75;;;7.10;99.90;;;;;;5073108;28;20547;-75
2022/03/18 03:24:56;;;;;;;40.50;33.70;;;7.10;99.90;;;;;;5069660;28;20241;-78
2022/03/18 03:27:26;;;;;;;43.30;34.22;;;7.00;99.90;;;;;;5056784;28;20183;-73
2022/03/18 03:29:51;;;;;;;41.88;34.78;;;7.00;99.90;;;;;;5062088;28;20646;-75
2022/03/18 03:32:17;;;;;;;40.80;34.20;;;7.00;99.90;;;;;;5069801;28;20224;-74
2022/03/18 03:34:43;;;;;;;41.45;33.15;;;6.90;99.90;;;;;;5077287;28;20199;-75
2022/03/18 03:37:08;;;;;;;41.88;34.65;;;6.90;99.90;;;;;;5067164;28;20190;-75
2022/03/18 03:39:34;;;;;;;42.22;34.53;;;6.90;99.90;;;;;;5066289;28;20727;-75
2022/03/18 03:41:59;;;;;;;41.90;34.05;;;6.80;99.90;;;;;;5067484;28;20183;-75
2022/03/18 03:44:25;;;;;;;39.65;33.08;;;6.70;99.90;;;;;;5068031;28;20289;-75
2022/03/18 03:46:51;;;;;;;41.28;35.22;;;6.80;99.90;;;;;;5067866;28;20172;-74
2022/03/18 03:49:16;;;;;;;42.60;34.83;;;6.80;99.90;;;;;;5068070;28;20210;-74
2022/03/18 03:51:42;;;;;;;40.45;32.38;;;6.80;99.90;;;;;;5070926;28;20171;-74
2022/03/18 03:54:07;;;;;;;41.90;32.78;;;6.90;99.90;;;;;;5069130;28;20254;-74
2022/03/18 03:56:33;;;;;;;42.60;34.17;;;6.90;99.90;;;;;;5071272;28;20228;-74
2022/03/18 03:58:58;;;;;;;42.85;27.33;;;6.90;99.90;;;;;;5067398;28;20190;-74
2022/03/18 04:01:24;;;;;;;41.13;33.92;;;6.90;99.90;;;;;;5068028;28;20556;-74
2022/03/18 04:03:50;;;;;;;41.05;34.10;;;6.90;99.90;;;;;;5067524;28;20195;-74
2022/03/18 04:06:15;;;;;;;47.03;37.20;;;6.90;99.90;;;;;;5079906;28;20202;-74
2022/03/18 04:08:41;;;;;;;44.00;33.70;;;6.80;99.90;;;;;;5067098;28;20202;-74
2022/03/18 04:11:06;;;;;;;44.97;35.65;;;6.80;99.90;;;;;;5067345;28;20217;-73
2022/03/18 04:13:32;;;;;;;45.60;37.92;;;6.70;99.90;;;;;;5060958;28;20532;-74
2022/03/18 04:15:57;;;;;;;43.13;34.20;;;6.70;99.90;;;;;;5060718;28;20653;-74
2022/03/18 04:18:23;;;;;;;47.53;36.10;;;6.60;99.90;;;;;;5068918;28;20187;-75
2022/03/18 04:20:49;;;;;;;43.60;34.53;;;6.60;99.90;;;;;;5067325;28;20187;-76
2022/03/18 04:23:14;;;;;;;39.83;35.35;;;6.50;99.90;;;;;;5083296;28;20186;-74
2022/03/18 04:25:40;;;;;;;42.00;32.67;;;6.50;99.90;;;;;;5067485;28;20211;-74
2022/03/18 04:28:06;;;;;;;46.67;36.40;;;6.40;99.90;;;;;;5065238;28;20176;-75
2022/03/18 04:30:32;;;;;;;39.63;31.90;;;6.40;99.90;;;;;;5064046;28;20528;-74
2022/03/18 04:32:57;;;;;;;42.65;31.88;;;6.30;99.90;;;;;;5061561;28;20248;-75
2022/03/18 04:35:23;;;;;;;39.08;31.52;;;6.30;99.90;;;;;;5068466;28;20618;-73
2022/03/18 04:37:49;;;;;;;42.43;31.03;;;6.30;99.90;;;;;;5067525;28;20179;-75
2022/03/18 04:40:15;;;;;;;35.40;29.30;;;6.20;99.90;;;;;;5063672;28;20207;-76
2022/03/18 04:42:41;;;;;;;38.13;30.85;;;6.20;99.90;;;;;;5062353;28;20207;-76
2022/03/18 04:45:08;;;;;;;36.90;29.17;;;6.10;99.90;;;;;;5066423;28;20211;-76
2022/03/18 04:47:35;;;;;;;38.03;29.83;;;6.00;99.90;;;;;;5066316;28;20305;-76
2022/03/18 04:50:01;;;;;;;34.95;28.33;;;6.00;99.90;;;;;;5059271;28;20221;-73
2022/03/18 04:52:27;;;;;;;35.20;28.20;;;5.90;99.90;;;;;;5071125;28;20171;-73
2022/03/18 04:54:52;;;;;;;33.87;27.00;;;5.90;99.90;;;;;;5059625;28;20250;-74
2022/03/18 04:57:18;;;;;;;33.77;27.20;;;5.80;99.90;;;;;;5063771;28;20202;-74
2022/03/18 04:59:46;;;;;;;33.93;27.47;;;5.90;99.90;;;;;;5056852;28;20692;-74
2022/03/18 05:02:11;;;;;;;31.63;26.67;;;5.80;99.90;;;;;;5064266;28;20259;-74
2022/03/18 05:04:38;;;;;;;33.43;25.97;;;5.80;99.90;;;;;;5065572;28;20278;-74
2022/03/18 05:07:04;;;;;;;34.63;27.93;;;5.80;99.90;;;;;;5065168;28;20282;-75
2022/03/18 05:09:30;;;;;;;32.27;26.60;;;5.70;99.90;;;;;;5070814;28;20175;-73
2022/03/18 05:11:56;;;;;;;32.58;26.08;;;5.70;99.90;;;;;;5065257;28;20233;-75
2022/03/18 05:14:21;;;;;;;29.17;24.73;;;5.60;99.90;;;;;;5068966;28;20610;-73
2022/03/18 05:16:47;;;;;;;30.00;24.57;;;5.60;99.90;;;;;;5069578;28;20228;-73
2022/03/18 05:19:13;;;;;;;33.47;26.53;;;5.70;99.90;;;;;;5071196;28;20402;-73
2022/03/18 05:21:39;;;;;;;31.40;24.95;;;5.60;99.90;;;;;;5066865;28;20259;-73
2022/03/18 05:24:06;;;;;;;29.52;23.63;;;5.60;99.90;;;;;;5071645;28;20686;-74
2022/03/18 05:26:33;;;;;;;29.13;23.55;;;5.60;99.90;;;;;;5069899;28;20194;-74
2022/03/18 05:28:59;;;;;;;30.27;25.75;;;5.70;99.90;;;;;;5071564;28;20183;-73
2022/03/18 05:31:27;;;;;;;29.67;24.23;;;5.70;99.90;;;;;;5067866;28;20555;-74
2022/03/18 05:33:56;;;;;;;27.95;23.00;;;5.70;99.90;;;;;;5069335;28;20209;-72
2022/03/18 05:36:22;;;;;;;29.20;23.60;;;5.60;99.90;;;;;;5063623;28;20187;-75
2022/03/18 05:38:47;;;;;;;29.03;22.67;;;5.60;99.90;;;;;;5071777;28;20179;-75
2022/03/18 05:41:13;;;;;;;28.70;24.73;;;5.50;99.90;;;;;;5066644;28;20183;-73
2022/03/18 05:43:39;;;;;;;27.97;23.30;;;5.50;99.90;;;;;;5065798;28;20191;-73
2022/03/18 05:46:05;;;;;;;29.03;24.00;;;5.50;99.90;;;;;;5070255;28;20202;-73
2022/03/18 05:48:31;;;;;;;29.23;24.43;;;5.50;99.90;;;;;;5070899;28;20651;-73
2022/03/18 05:50:56;;;;;;;30.35;23.75;;;5.50;99.90;;;;;;5069017;28;20190;-73
2022/03/18 05:53:22;;;;;;;28.53;23.13;;;5.50;99.90;;;;;;5068343;28;20241;-73
2022/03/18 05:58:32;;;;;;;28.17;22.00;;;5.60;99.90;;;;;;5070022;28;20224;-74
2022/03/18 06:00:58;;;;;;;27.73;22.77;;;5.70;99.90;;;;;;5079017;28;20668;-74
2022/03/18 06:03:24;;;;;;;29.13;23.53;;;5.70;99.90;;;;;;5068418;28;20646;-75
2022/03/18 06:05:50;;;;;;;29.27;22.30;;;5.70;99.90;;;;;;5063021;28;20199;-75
2022/03/18 06:13:44;;;;;;;27.42;23.05;;;5.90;99.90;;;;;;5066095;28;20213;-75
2022/03/18 06:16:10;;;;;;;29.73;22.90;;;6.10;99.90;;;;;;5069117;28;20180;-75
2022/03/18 06:18:35;;;;;;;27.35;22.50;;;6.10;99.90;;;;;;5068935;28;20175;-73
2022/03/18 06:21:04;;;;;;;28.95;21.88;;;6.20;99.90;;;;;;5065366;28;20598;-74
2022/03/18 06:23:30;;;;;;;31.38;23.38;;;6.30;99.90;;;;;;5070475;28;20632;-74
2022/03/18 06:25:56;;;;;;;30.20;23.45;;;6.30;99.90;;;;;;5067938;28;20336;-74
2022/03/18 06:28:22;;;;;;;28.42;22.08;;;6.40;99.90;;;;;;5084417;28;20191;-74
2022/03/18 06:30:47;;;;;;;28.83;24.52;;;6.50;99.90;;;;;;5070606;28;20636;-74
2022/03/18 06:33:13;;;;;;;27.75;22.90;;;6.60;99.90;;;;;;5070691;28;20176;-74
2022/03/18 06:35:38;;;;;;;31.88;26.55;;;6.70;99.90;;;;;;5066349;28;20237;-73
2022/03/18 06:38:04;;;;;;;26.85;23.95;;;6.80;99.90;;;;;;5070581;28;20193;-75
2022/03/18 06:40:30;;;;;;;30.05;24.45;;;7.00;99.90;;;;;;5058244;28;20180;-73
2022/03/18 06:42:55;;;;;;;31.60;25.95;;;7.10;99.90;;;;;;5066256;28;20198;-73
2022/03/18 06:45:21;;;;;;;30.35;25.00;;;7.30;99.90;;;;;;5070770;28;20203;-75
2022/03/18 06:47:47;;;;;;;30.38;25.88;;;7.40;99.90;;;;;;5063052;28;20171;-73
2022/03/18 06:50:13;;;;;;;28.55;24.80;;;7.50;99.90;;;;;;5069365;28;20638;-73
2022/03/18 06:52:39;;;;;;;33.47;27.83;;;7.60;99.90;;;;;;5062667;28;20217;-73
2022/03/18 06:55:05;;;;;;;31.40;26.42;;;7.80;99.90;;;;;;5067232;28;20203;-73
2022/03/18 06:57:30;;;;;;;32.70;26.80;;;7.80;99.90;;;;;;5067351;28;20688;-74
2022/03/18 06:59:56;;;;;;;35.05;27.88;;;7.90;99.90;;;;;;5063764;28;20267;-73
2022/03/18 07:02:22;;;;;;;33.10;28.05;;;8.00;99.90;;;;;;5059087;28;20203;-74
2022/03/18 07:04:47;;;;;;;36.45;29.70;;;8.20;99.90;;;;;;5070811;28;20238;-75
2022/03/18 07:07:13;;;;;;;35.15;28.60;;;8.50;99.90;;;;;;5087920;28;20548;-75
2022/03/18 07:09:39;;;;;;;41.40;30.35;;;8.60;99.90;;;;;;5062976;28;20222;-74
2022/03/18 07:12:05;;;;;;;39.33;30.25;;;8.80;99.90;;;;;;5060432;28;20230;-74
2022/03/18 07:14:30;;;;;;;37.10;30.63;;;8.90;99.90;;;;;;5064898;28;20684;-74
2022/03/18 07:19:40;;;;;;;43.97;32.60;;;9.30;99.90;;;;;;5064885;28;20252;-73
2022/03/18 07:22:06;;;;;;;42.50;31.75;;;9.40;99.90;;;;;;5066660;28;20653;-70
2022/03/18 07:24:32;;;;;;;40.92;33.50;;;9.50;99.90;;;;;;5066935;28;20207;-73
2022/03/18 07:26:58;;;;;;;39.63;32.20;;;9.60;99.90;;;;;;5059642;28;20640;-73
2022/03/18 07:29:23;;;;;;;41.53;34.58;;;9.70;99.90;;;;;;5071231;28;20179;-74
2022/03/18 07:31:51;;;;;;;42.15;34.30;;;9.90;99.90;;;;;;5069205;28;20678;-73
2022/03/18 07:34:16;;;;;;;41.90;33.13;;;10.10;99.90;;;;;;5068978;28;20205;-75
2022/03/18 07:36:42;;;;;;;43.55;35.67;;;10.20;99.90;;;;;;5068008;28;20179;-74
2022/03/18 07:39:08;;;;;;;44.17;36.85;;;10.30;99.90;;;;;;5061295;28;20664;-74
2022/03/18 07:41:35;;;;;;;43.22;34.33;;;10.20;99.90;;;;;;5060883;28;20179;-77
2022/03/18 07:44:01;;;;;;;42.50;33.58;;;10.30;99.90;;;;;;5073527;28;20215;-80
2022/03/18 07:46:27;;;;;;;44.97;34.85;;;10.50;99.90;;;;;;5063001;28;20175;-81
2022/03/18 07:48:52;;;;;;;43.35;35.35;;;10.60;99.90;;;;;;5067393;28;20186;-80
2022/03/18 07:51:18;;;;;;;46.83;37.45;;;10.60;99.90;;;;;;5068608;28;20175;-78
2022/03/18 07:53:43;;;;;;;47.05;37.28;;;10.80;99.90;;;;;;5072834;28;20666;-80
2022/03/18 07:56:09;;;;;;;43.15;36.67;;;10.90;99.90;;;;;;5071635;28;20187;-80
2022/03/18 07:58:35;;;;;;;41.80;33.65;;;11.00;99.90;;;;;;5071510;28;20232;-79
2022/03/18 08:01:00;;;;;;;45.05;35.20;;;11.10;99.90;;;;;;5063172;28;20275;-79
2022/03/18 08:03:26;;;;;;;47.03;35.78;;;11.20;99.90;;;;;;5074936;28;20279;-75
2022/03/18 08:05:52;;;;;;;50.92;39.55;;;11.30;99.90;;;;;;5063550;28;20294;-79
2022/03/18 08:08:17;;;;;;;44.60;35.17;;;11.50;99.90;;;;;;5066920;28;20190;-77
2022/03/18 08:10:43;;;;;;;47.90;37.45;;;11.50;99.90;;;;;;5067064;28;20196;-77
2022/03/18 08:13:09;;;;;;;42.28;36.05;;;11.50;99.90;;;;;;5078416;28;20633;-74
2022/03/18 08:15:35;;;;;;;45.72;35.25;;;11.50;99.90;;;;;;5067396;28;20272;-74
2022/03/18 08:18:02;;;;;;;45.70;37.53;;;11.60;99.90;;;;;;5066150;28;20236;-72
2022/03/18 08:20:29;;;;;;;42.47;33.72;;;11.60;99.90;;;;;;5062974;28;20184;-73
2022/03/18 08:22:54;;;;;;;45.28;37.13;;;11.70;99.90;;;;;;5065029;28;20175;-73
2022/03/18 08:25:20;;;;;;;44.25;35.92;;;11.70;99.90;;;;;;5060555;28;20215;-72
2022/03/18 08:27:49;;;;;;;45.05;36.40;;;11.80;99.90;;;;;;5062639;28;20409;-73
2022/03/18 08:30:15;;;;;;;43.72;34.58;;;11.80;99.90;;;;;;5065584;28;20182;-70
2022/03/18 08:32:41;;;;;;;44.80;34.00;;;11.80;99.90;;;;;;5070569;28;20262;-77
2022/03/18 08:35:08;;;;;;;42.40;34.63;;;11.70;99.90;;;;;;5064391;28;20301;-73
2022/03/18 08:40:18;;;;;;;41.05;33.13;;;11.90;99.90;;;;;;5062122;28;20201;-74
2022/03/18 08:42:44;;;;;;;40.20;34.42;;;12.20;99.90;;;;;;5075052;28;20638;-71
2022/03/18 08:45:10;;;;;;;43.35;34.85;;;12.40;99.90;;;;;;5071020;28;20289;-71
2022/03/18 08:47:36;;;;;;;44.17;33.58;;;12.60;99.90;;;;;;5069962;28;20175;-74
2022/03/18 08:50:03;;;;;;;43.22;34.08;;;12.60;99.90;;;;;;5066720;28;20175;-77
2022/03/18 08:52:29;;;;;;;41.47;34.67;;;12.90;99.90;;;;;;5070500;28;20175;-75
2022/03/18 08:54:54;;;;;;;44.35;34.60;;;12.90;99.90;;;;;;5072250;28;20633;-74
2022/03/18 08:57:20;;;;;;;40.97;33.78;;;12.90;99.90;;;;;;5066097;28;20184;-72
2022/03/18 08:59:46;;;;;;;40.63;33.53;;;13.30;99.90;;;;;;5060172;28;20522;-72
2022/03/18 09:02:12;;;;;;;38.08;33.10;;;13.80;99.90;;;;;;5071324;28;20229;-75
2022/03/18 09:04:37;;;;;;;36.00;29.23;;;14.10;99.90;;;;;;5070857;28;20195;-74
2022/03/18 09:07:03;;;;;;;33.85;29.50;;;14.50;99.90;;;;;;5069754;28;20235;-73
2022/03/18 09:09:29;;;;;;;35.78;31.63;;;14.90;99.90;;;;;;5070259;28;20303;-74
2022/03/18 09:11:55;;;;;;;37.38;31.58;;;15.40;99.90;;;;;;5071744;28;20183;-75
2022/03/18 09:14:21;;;;;;;31.65;28.20;;;15.70;99.90;;;;;;5068785;28;20203;-75
2022/03/18 09:16:49;;;;;;;34.03;29.30;;;15.80;98.40;;;;;;5066175;28;20171;-73
2022/03/18 09:19:15;;;;;;;32.97;26.55;;;15.80;97.00;;;;;;5071824;28;20691;-73
2022/03/18 09:21:41;;;;;;;29.13;25.92;;;16.10;95.70;;;;;;5069934;28;20702;-72
2022/03/18 09:24:07;;;;;;;29.63;26.50;;;16.40;93.20;;;;;;5070502;28;20206;-73
2022/03/18 09:26:33;;;;;;;32.38;27.15;;;16.70;90.70;;;;;;5079606;28;20724;-73
2022/03/18 09:28:58;;;;;;;30.25;26.40;;;16.80;89.60;;;;;;5075152;28;20266;-73
2022/03/18 09:31:24;;;;;;;28.92;25.83;;;17.30;88.00;;;;;;5072818;28;20191;-72
2022/03/18 09:33:50;;;;;;;26.63;23.83;;;18.10;83.00;;;;;;5071116;28;20199;-73
2022/03/18 09:36:18;;;;;;;27.17;24.30;;;18.40;79.60;;;;;;5063345;28;20200;-75
2022/03/18 09:39:05;;;;;;;27.33;24.55;;;18.70;75.60;;;;;;5069663;28;20179;-78
2022/03/18 09:41:30;;;;;;;25.75;22.67;;;18.80;72.80;;;;;;5085330;28;20699;-77
2022/03/18 09:43:56;;;;;;;26.17;23.13;;;19.30;70.20;;;;;;5056837;28;20200;-77
2022/03/18 09:46:22;;;;;;;25.05;22.27;;;20.10;66.90;;;;;;5059085;28;20265;-77
2022/03/18 09:48:48;;;;;;;25.13;22.33;;;20.70;62.50;;;;;;5067201;28;20174;-75
2022/03/18 09:51:14;;;;;;;26.20;23.60;;;21.00;59.10;;;;;;5071595;28;20656;-75
2022/03/18 09:53:40;;;;;;;24.63;22.02;;;21.30;58.60;;;;;;5065072;28;20230;-73
2022/03/18 09:56:05;;;;;;;24.25;21.80;;;21.40;58.30;;;;;;5062848;28;20180;-73
2022/03/18 09:58:31;;;;;;;24.48;21.95;;;21.60;57.50;;;;;;5068583;28;20313;-75
2022/03/18 10:01:01;;;;;;;24.05;21.58;;;21.40;56.60;;;;;;5067370;28;20200;-74
2022/03/18 10:04:01;;;;;;;22.58;19.95;;;21.20;56.50;;;;;;5068757;28;20211;-77
2022/03/18 10:06:28;;;;;;;23.42;20.92;;;21.20;55.90;;;;;;5062651;28;20650;-75
2022/03/18 10:08:55;;;;;;;23.10;20.63;;;21.50;55.20;;;;;;5063783;28;20310;-75
2022/03/18 10:11:28;;;;;;;24.40;21.80;;;22.00;54.10;;;;;;5064477;28;20368;-75
2022/03/18 10:13:57;;;;;;;25.55;22.88;;;22.70;53.60;;;;;;5066228;28;20203;-75
2022/03/18 10:16:44;;;;;;;21.45;19.35;;;23.60;51.00;;;;;;5059512;28;20241;-76
2022/03/18 10:19:16;;;;;;;24.40;21.90;;;24.10;50.80;;;;;;5061549;28;20163;-77
2022/03/18 10:21:56;;;;;;;22.17;19.98;;;24.10;49.70;;;;;;5062604;28;20178;-76
2022/03/18 10:24:30;;;;;;;22.17;19.88;;;24.30;48.90;;;;;;5070956;28;20560;-76
2022/03/18 10:27:15;;;;;;;24.35;21.20;;;24.50;47.90;;;;;;5059311;28;20183;-76
2022/03/18 10:29:46;;;;;;;23.33;20.92;;;24.40;47.50;;;;;;5074609;28;20185;-74
2022/03/18 10:32:13;;;;;;;22.55;20.35;;;24.10;47.20;;;;;;5073812;28;20175;-74
2022/03/18 10:37:25;;;;;;;22.48;20.27;;;24.40;47.10;;;;;;5069946;28;20197;-73
2022/03/18 10:39:59;;;;;;;23.70;21.33;;;25.00;46.30;;;;;;5065389;28;20263;-76
2022/03/18 10:42:25;;;;;;;24.17;21.67;;;25.60;45.80;;;;;;5079518;28;20510;-76
2022/03/18 10:44:59;;;;;;;23.92;21.73;;;25.70;45.20;;;;;;5068627;28;20203;-77
2022/03/18 10:47:26;;;;;;;23.63;21.25;;;25.20;45.50;;;;;;5065317;28;20298;-77
2022/03/18 10:50:12;;;;;;;24.08;21.77;;;25.10;45.70;;;;;;5064734;28;20172;-77
2022/03/18 10:52:39;;;;;;;22.05;19.95;;;25.60;45.10;;;;;;5068503;28;20183;-77
2022/03/18 10:55:29;;;;;;;22.27;20.02;;;25.70;45.20;;;;;;5054961;28;20468;-77
2022/03/18 10:57:59;;;;;;;22.95;20.50;;;26.20;44.40;;;;;;5068802;28;20179;-76
2022/03/18 11:00:36;;;;;;;19.70;17.88;;;27.00;43.50;;;;;;5067630;28;20269;-76
2022/03/18 11:03:02;;;;;;;19.63;17.83;;;27.70;40.90;;;;;;5059289;28;20189;-77
2022/03/18 11:05:55;;;;;;;19.45;16.67;;;27.50;40.30;;;;;;5066962;28;20573;-77
2022/03/18 11:08:31;;;;;;;19.42;17.63;;;27.70;40.50;;;;;;5065872;28;20175;-78
2022/03/18 11:11:07;;;;;;;19.27;17.38;;;27.90;39.80;;;;;;5071060;28;20199;-77
2022/03/18 11:13:48;;;;;;;19.67;17.67;;;28.50;38.10;;;;;;5068346;28;20506;-75
2022/03/18 11:16:25;;;;;;;18.52;16.52;;;28.90;37.40;;;;;;5068055;28;20189;-76
2022/03/18 11:18:51;;;;;;;18.80;17.10;;;29.20;37.30;;;;;;5067807;28;20228;-75
2022/03/18 11:21:18;;;;;;;18.08;16.27;;;29.30;36.80;;;;;;5068676;28;20171;-75
2022/03/18 11:23:45;;;;;;;17.38;15.77;;;29.30;37.40;;;;;;5061717;28;20669;-77
2022/03/18 11:26:14;;;;;;;18.40;16.52;;;28.90;36.80;;;;;;5062744;28;20302;-76
2022/03/18 11:28:40;;;;;;;17.88;16.05;;;28.80;35.80;;;;;;5071818;28;20739;-76
2022/03/18 11:31:08;;;;;;;18.45;16.73;;;28.50;36.80;;;;;;5065935;28;20176;-76
2022/03/18 11:33:37;;;;;;;16.80;15.23;;;28.70;37.20;;;;;;5065394;28;20257;-76
2022/03/18 11:36:04;;;;;;;17.38;15.82;;;29.20;36.70;;;;;;5070655;28;20384;-76
2022/03/18 11:38:55;;;;;;;17.40;15.70;;;29.10;35.50;;;;;;5068875;28;20186;-78
2022/03/18 11:41:24;;;;;;;16.13;14.63;;;28.20;36.10;;;;;;5060587;28;20289;-75
2022/03/18 11:43:51;;;;;;;20.83;16.98;;;28.00;37.00;;;;;;5069428;28;20195;-77
2022/03/18 11:46:16;;;;;;;18.17;16.40;;;27.80;37.50;;;;;;5065967;28;20689;-75
2022/03/18 11:48:44;;;;;;;19.33;17.40;;;27.40;37.40;;;;;;5069377;28;20202;-74
2022/03/18 11:51:21;;;;;;;18.80;16.92;;;26.90;37.90;;;;;;5068762;28;20183;-75
2022/03/18 11:53:51;;;;;;;17.23;15.43;;;26.40;38.00;;;;;;5061132;28;20196;-74
2022/03/18 11:56:18;;;;;;;19.90;17.83;;;26.40;38.20;;;;;;5065821;28;20184;-77
2022/03/18 11:58:44;;;;;;;19.15;17.30;;;26.10;38.90;;;;;;5068908;28;20244;-74
2022/03/18 12:01:40;;;;;;;19.33;16.85;;;26.00;38.70;;;;;;5067869;28;20222;-76
2022/03/18 12:04:07;;;;;;;19.38;17.65;;;26.00;39.10;;;;;;5068005;28;20207;-76
2022/03/18 12:06:33;;;;;;;19.38;17.55;;;25.30;39.40;;;;;;5067310;28;20187;-76
2022/03/18 12:09:00;;;;;;;18.45;16.85;;;25.70;39.80;;;;;;5068175;28;20180;-75
2022/03/18 12:11:36;;;;;;;18.92;17.02;;;25.70;39.80;;;;;;5069515;28;20167;-76
2022/03/18 12:14:03;;;;;;;19.30;17.45;;;25.30;40.10;;;;;;5069942;28;20205;-74
2022/03/18 12:16:30;;;;;;;18.73;16.92;;;24.90;40.50;;;;;;5066714;28;20758;-74
2022/03/18 12:18:59;;;;;;;18.70;16.85;;;24.50;40.80;;;;;;5077487;28;20179;-74
2022/03/18 12:21:42;;;;;;;19.65;17.75;;;25.10;40.80;;;;;;5071495;28;20642;-74
2022/03/18 12:24:09;;;;;;;17.80;16.17;;;25.70;39.80;;;;;;5090093;28;20198;-75
2022/03/18 12:26:36;;;;;;;19.25;17.55;;;26.30;39.70;;;;;;5074972;28;20249;-75
2022/03/18 12:29:03;;;;;;;19.20;17.50;;;25.90;39.00;;;;;;5073458;28;20179;-75
2022/03/18 12:31:28;;;;;;;19.40;17.42;;;25.40;39.60;;;;;;5069886;28;20232;-76
2022/03/18 12:34:03;;;;;;;22.23;20.02;;;25.20;40.70;;;;;;5066222;28;20223;-75
2022/03/18 12:36:29;;;;;;;20.00;18.13;;;24.80;41.50;;;;;;5067165;28;20179;-75
2022/03/18 12:39:10;;;;;;;22.27;19.98;;;25.00;41.70;;;;;;5069136;28;20176;-77
2022/03/18 12:41:36;;;;;;;20.65;18.65;;;25.50;40.60;;;;;;5069073;28;20253;-76
2022/03/18 12:44:02;;;;;;;20.55;18.63;;;25.90;41.20;;;;;;5071285;28;20203;-76
2022/03/18 12:46:29;;;;;;;22.67;20.52;;;26.10;40.10;;;;;;5063380;28;20243;-75
2022/03/18 12:48:56;;;;;;;22.17;20.05;;;26.20;40.70;;;;;;5077788;28;20519;-76
2022/03/18 12:51:23;;;;;;;22.48;20.20;;;25.80;39.80;;;;;;5082091;28;20583;-75
2022/03/18 12:53:49;;;;;;;19.75;17.95;;;25.30;41.40;;;;;;5076225;28;20274;-75
2022/03/18 12:56:17;;;;;;;22.15;20.00;;;25.20;42.30;;;;;;5070906;28;20231;-76
2022/03/18 12:58:45;;;;;;;21.73;19.70;;;25.70;41.80;;;;;;5071734;28;20214;-76
2022/03/18 13:01:14;;;;;;;21.73;19.63;;;25.90;41.30;;;;;;5072902;28;20187;-76
2022/03/18 13:04:08;;;;;;;21.77;19.58;;;25.90;41.00;;;;;;5067843;28;20614;-75